createdAt,value
2019-02-15T00:00:17.105Z,19.9
2019-02-15T00:01:07.159Z,20.2
2019-02-15T00:01:57.442Z,20.3
2019-02-15T00:02:46.541Z,20.5
2019-02-15T00:03:38.160Z,20.6
2019-02-15T00:04:27.675Z,20.8
2019-02-15T00:05:17.187Z,20.9
2019-02-15T00:06:07.785Z,20.9
2019-02-15T00:06:57.548Z,21
2019-02-15T00:08:37.633Z,21.2
2019-02-15T00:09:26.787Z,21.3
2019-02-15T00:10:17.800Z,21.3
2019-02-15T00:11:07.060Z,21.4
2019-02-15T00:11:57.135Z,21.4
2019-02-15T00:12:47.753Z,21.5
2019-02-15T00:13:38.574Z,21.6
2019-02-15T00:14:28.882Z,21.5
2019-02-15T00:15:18.367Z,21
2019-02-15T00:16:08.224Z,20.6
2019-02-15T00:16:58.226Z,20.2
2019-02-15T00:17:48.529Z,19.9
2019-02-15T00:18:38.824Z,19.6
2019-02-15T00:19:28.216Z,19.4
2019-02-15T00:20:17.932Z,19.2
2019-02-15T00:21:09.109Z,19.1
2019-02-15T00:21:58.835Z,18.9
2019-02-15T00:22:48.387Z,18.8
2019-02-15T00:23:38.629Z,18.8
2019-02-15T00:24:29.323Z,18.6
2019-02-15T00:25:18.504Z,18.5
2019-02-15T00:26:08.622Z,18.4
2019-02-15T00:26:59.201Z,18.9
2019-02-15T00:27:48.119Z,19.3
2019-02-15T00:28:38.742Z,19.6
2019-02-15T00:29:29.395Z,19.9
2019-02-15T00:30:19.468Z,20.1
2019-02-15T00:31:08.904Z,20.3
2019-02-15T00:31:59.558Z,20.4
2019-02-15T00:32:48.789Z,20.6
2019-02-15T00:33:38.771Z,20.7
2019-02-15T00:34:30.021Z,20.6
2019-02-15T00:35:19.535Z,20.1
2019-02-15T00:36:09.330Z,19.3
2019-02-15T00:36:58.874Z,18.6
2019-02-15T00:37:49.425Z,17.8
2019-02-15T00:38:39.648Z,17.1
2019-02-15T00:39:29.050Z,17.1
2019-02-15T00:40:19.050Z,17.4
2019-02-15T00:41:09.345Z,18.1
2019-02-15T00:42:00.055Z,18.6
2019-02-15T00:42:49.484Z,19.1
2019-02-15T00:43:39.243Z,19.5
2019-02-15T00:44:30.426Z,19.8
2019-02-15T00:45:19.882Z,20
2019-02-15T00:46:09.388Z,20.3
2019-02-15T00:47:00.815Z,20.4
2019-02-15T00:47:50.293Z,20.6
2019-02-15T00:48:40.087Z,20.7
2019-02-15T00:49:30.255Z,20.8
2019-02-15T00:50:20.800Z,20.9
2019-02-15T00:51:10.270Z,21
2019-02-15T00:52:50.410Z,21.2
2019-02-15T00:53:41.029Z,21.3
2019-02-15T00:54:31.040Z,21.4
2019-02-15T00:55:21.967Z,21.4
2019-02-15T00:56:10.689Z,21.5
2019-02-15T00:57:00.992Z,21.6
2019-02-15T00:57:50.777Z,21.6
2019-02-15T00:58:41.332Z,21.2
2019-02-15T00:59:32.031Z,20.7
2019-02-15T01:00:21.149Z,20.3
2019-02-15T01:01:11.624Z,19.9
2019-02-15T01:02:00.237Z,19.7
2019-02-15T01:02:51.889Z,19.4
2019-02-15T01:03:41.244Z,19.2
2019-02-15T01:04:31.246Z,19.1
2019-02-15T01:05:21.424Z,18.9
2019-02-15T01:06:10.788Z,18.8
2019-02-15T01:07:02.173Z,18.6
2019-02-15T01:07:52.308Z,18.6
2019-02-15T01:08:42.268Z,18.4
2019-02-15T01:09:31.092Z,18.3
2019-02-15T01:10:22.186Z,18.6
2019-02-15T01:11:11.729Z,19.1
2019-02-15T01:12:02.252Z,19.4
2019-02-15T01:12:51.789Z,19.8
2019-02-15T01:13:41.523Z,19.9
2019-02-15T01:14:31.873Z,20.1
2019-02-15T01:15:22.726Z,20.3
2019-02-15T01:16:12.061Z,20.4
2019-02-15T01:17:02.615Z,20.6
2019-02-15T01:17:52.441Z,20.7
2019-02-15T01:18:42.765Z,20.8
2019-02-15T01:19:31.973Z,20.9
2019-02-15T01:20:22.884Z,21
2019-02-15T01:21:13.138Z,21.1
2019-02-15T01:22:52.246Z,21.3
2019-02-15T01:23:43.330Z,21.3
2019-02-15T01:24:32.273Z,21.4
2019-02-15T01:25:23.189Z,21.4
2019-02-15T01:26:12.418Z,21.5
2019-02-15T01:27:02.422Z,21.6
2019-02-15T01:27:53.295Z,21
2019-02-15T01:28:43.412Z,20.6
2019-02-15T01:29:33.160Z,20.2
2019-02-15T01:30:23.232Z,19.8
2019-02-15T01:31:13.838Z,19.6
2019-02-15T01:32:03.353Z,19.4
2019-02-15T01:32:53.682Z,19.2
2019-02-15T01:33:43.133Z,19.1
2019-02-15T01:34:33.344Z,18.9
2019-02-15T01:35:22.793Z,18.8
2019-02-15T01:36:13.949Z,18.6
2019-02-15T01:37:03.694Z,18.6
2019-02-15T01:37:54.580Z,18.4
2019-02-15T01:38:44.174Z,18.3
2019-02-15T01:39:34.137Z,18.6
2019-02-15T01:40:23.907Z,19.1
2019-02-15T01:41:14.207Z,19.4
2019-02-15T01:42:04.017Z,19.7
2019-02-15T01:42:54.047Z,19.9
2019-02-15T01:43:49.302Z,20.1
2019-02-15T01:44:34.526Z,20.3
2019-02-15T01:45:24.104Z,20.4
2019-02-15T01:46:14.884Z,20.6
2019-02-15T01:47:05.190Z,20.8
2019-02-15T01:47:54.174Z,20.8
2019-02-15T01:48:44.771Z,20.9
2019-02-15T01:49:34.132Z,21
2019-02-15T01:50:24.134Z,21.1
2019-02-15T01:51:14.475Z,21.2
2019-02-15T01:52:05.066Z,21.3
2019-02-15T01:52:54.851Z,21.3
2019-02-15T01:53:45.193Z,21.4
2019-02-15T01:54:35.458Z,21.4
2019-02-15T01:55:25.513Z,21.5
2019-02-15T01:56:14.593Z,21.5
2019-02-15T01:57:05.146Z,21.1
2019-02-15T01:57:54.868Z,20.6
2019-02-15T01:58:46.073Z,20.2
2019-02-15T01:59:34.966Z,19.9
2019-02-15T02:00:25.069Z,19.6
2019-02-15T02:01:14.795Z,19.4
2019-02-15T02:02:05.680Z,19.2
2019-02-15T02:02:55.287Z,19
2019-02-15T02:03:45.324Z,18.9
2019-02-15T02:04:35.270Z,18.8
2019-02-15T02:05:25.385Z,18.6
2019-02-15T02:06:15.253Z,18.6
2019-02-15T02:07:05.728Z,18.4
2019-02-15T02:07:56.090Z,18.3
2019-02-15T02:08:46.721Z,18.6
2019-02-15T02:09:35.946Z,19.1
2019-02-15T02:10:25.464Z,19.4
2019-02-15T02:11:15.510Z,19.8
2019-02-15T02:12:05.625Z,20
2019-02-15T02:12:56.431Z,20.2
2019-02-15T02:13:55.568Z,20.4
2019-02-15T02:14:36.315Z,20.6
2019-02-15T02:15:26.642Z,20.6
2019-02-15T02:16:15.384Z,20.8
2019-02-15T02:17:07.247Z,20.9
2019-02-15T02:17:57.424Z,20.9
2019-02-15T02:18:46.364Z,21.1
2019-02-15T02:19:36.947Z,20.9
2019-02-15T02:20:27.207Z,20.3
2019-02-15T02:21:17.064Z,19.4
2019-02-15T02:22:07.144Z,18.8
2019-02-15T02:22:57.209Z,18.1
2019-02-15T02:23:45.584Z,17.3
2019-02-15T02:25:27.046Z,17.1
2019-02-15T02:26:17.351Z,17.5
2019-02-15T02:27:07.211Z,18.2
2019-02-15T02:27:57.449Z,18.8
2019-02-15T02:28:47.779Z,19.3
2019-02-15T02:29:37.873Z,19.6
2019-02-15T02:30:27.732Z,19.9
2019-02-15T02:31:17.029Z,20.1
2019-02-15T02:32:07.846Z,20.3
2019-02-15T02:32:57.572Z,20.5
2019-02-15T02:33:48.418Z,20.7
2019-02-15T02:34:36.699Z,20.8
2019-02-15T02:35:27.638Z,20.9
2019-02-15T02:36:17.296Z,21
2019-02-15T02:37:58.030Z,21.3
2019-02-15T02:38:48.011Z,21.4
2019-02-15T02:39:38.088Z,21.4
2019-02-15T02:40:27.825Z,21.5
2019-02-15T02:41:18.813Z,21.6
2019-02-15T02:42:08.204Z,21.5
2019-02-15T02:42:58.838Z,20.9
2019-02-15T02:43:48.203Z,20.5
2019-02-15T02:44:38.362Z,20.1
2019-02-15T02:45:28.515Z,19.8
2019-02-15T02:46:18.561Z,19.6
2019-02-15T02:47:09.104Z,19.3
2019-02-15T02:47:58.663Z,19.1
2019-02-15T02:48:49.023Z,19
2019-02-15T02:49:38.977Z,18.9
2019-02-15T02:51:18.847Z,18.6
2019-02-15T02:52:09.422Z,18.6
2019-02-15T02:52:59.801Z,18.4
2019-02-15T02:53:49.567Z,18.3
2019-02-15T02:54:39.765Z,18.9
2019-02-15T02:55:29.258Z,19.3
2019-02-15T02:56:19.224Z,19.6
2019-02-15T02:57:09.287Z,19.9
2019-02-15T02:57:59.545Z,20.1
2019-02-15T02:58:49.669Z,20.3
2019-02-15T02:59:39.972Z,20.4
2019-02-15T03:00:39.934Z,20.6
2019-02-15T03:01:20.438Z,20.8
2019-02-15T03:02:09.935Z,20.9
2019-02-15T03:02:59.928Z,20.9
2019-02-15T03:03:50.352Z,21.1
2019-02-15T03:04:40.092Z,21.2
2019-02-15T03:08:13.099Z,21.4
2019-02-15T03:09:01.730Z,21.6
2019-02-15T03:09:52.696Z,21.5
2019-02-15T03:10:43.302Z,21
2019-02-15T03:11:32.802Z,20.5
2019-02-15T03:12:23.104Z,20.1
2019-02-15T03:13:13.437Z,19.8
2019-02-15T03:14:14.953Z,19.6
2019-02-15T03:14:54.220Z,19.3
2019-02-15T03:15:43.613Z,19.2
2019-02-15T03:16:33.171Z,19.1
2019-02-15T03:17:23.004Z,18.9
2019-02-15T03:18:14.647Z,18.8
2019-02-15T03:19:53.131Z,18.6
2019-02-15T03:20:44.571Z,18.5
2019-02-15T03:21:32.949Z,18.3
2019-02-15T03:22:24.131Z,18.6
2019-02-15T03:23:13.446Z,19.1
2019-02-15T03:24:05.027Z,19.5
2019-02-15T03:24:54.941Z,19.8
2019-02-15T03:25:44.393Z,20
2019-02-15T03:26:33.878Z,20.2
2019-02-15T03:27:24.341Z,20.4
2019-02-15T03:28:14.731Z,20.6
2019-02-15T03:29:03.869Z,20.7
2019-02-15T03:29:53.569Z,20.8
2019-02-15T03:30:45.251Z,20.9
2019-02-15T03:31:34.580Z,21.1
2019-02-15T03:33:15.816Z,21.3
2019-02-15T03:34:05.438Z,21.3
2019-02-15T03:34:54.444Z,21.4
2019-02-15T03:35:44.201Z,21.4
2019-02-15T03:36:35.231Z,21.6
2019-02-15T03:37:25.395Z,21.6
2019-02-15T03:38:15.902Z,21.3
2019-02-15T03:39:05.551Z,20.8
2019-02-15T03:39:55.912Z,20.4
2019-02-15T03:40:45.955Z,20
2019-02-15T03:41:35.710Z,19.7
2019-02-15T03:42:25.587Z,19.4
2019-02-15T03:43:16.169Z,19.3
2019-02-15T03:44:05.782Z,19.1
2019-02-15T03:44:55.454Z,18.9
2019-02-15T03:45:46.650Z,18.8
2019-02-15T03:46:35.609Z,18.8
2019-02-15T03:47:26.323Z,18.6
2019-02-15T03:48:15.350Z,18.6
2019-02-15T03:49:06.034Z,18.4
2019-02-15T03:49:55.583Z,18.4
2019-02-15T03:50:46.324Z,18.9
2019-02-15T03:51:36.193Z,19.4
2019-02-15T03:52:26.497Z,19.7
2019-02-15T03:53:16.811Z,19.9
2019-02-15T03:54:05.261Z,20.2
2019-02-15T03:54:55.291Z,20.4
2019-02-15T03:55:45.979Z,20.5
2019-02-15T03:56:35.706Z,20.7
2019-02-15T03:57:25.815Z,20.8
2019-02-15T03:58:15.528Z,20.9
2019-02-15T03:59:05.392Z,21
2019-02-15T04:00:47.033Z,21.3
2019-02-15T04:01:37.180Z,21.3
2019-02-15T04:02:25.827Z,21.4
2019-02-15T04:03:16.098Z,21.4
2019-02-15T04:04:06.387Z,21.5
2019-02-15T04:04:57.043Z,21.6
2019-02-15T04:05:47.121Z,21.3
2019-02-15T04:06:37.207Z,20.7
2019-02-15T04:07:27.670Z,19.8
2019-02-15T04:08:16.732Z,19.1
2019-02-15T04:09:07.954Z,18.4
2019-02-15T04:09:57.649Z,17.6
2019-02-15T04:10:47.382Z,17.4
2019-02-15T04:11:36.271Z,17.4
2019-02-15T04:12:28.156Z,17.9
2019-02-15T04:14:07.287Z,19.2
2019-02-15T04:14:56.700Z,19.6
2019-02-15T04:15:47.547Z,19.9
2019-02-15T04:16:37.962Z,20.2
2019-02-15T04:17:26.918Z,20.4
2019-02-15T04:18:17.426Z,20.6
2019-02-15T04:19:06.881Z,20.8
2019-02-15T04:19:57.757Z,20.9
2019-02-15T04:20:47.587Z,21
2019-02-15T04:22:27.655Z,21.3
2019-02-15T04:23:17.992Z,21.3
2019-02-15T04:24:09.329Z,21.4
2019-02-15T04:24:57.531Z,21.6
2019-02-15T04:25:48.157Z,21.6
2019-02-15T04:26:38.517Z,21.5
2019-02-15T04:27:28.927Z,21
2019-02-15T04:28:19.007Z,20.5
2019-02-15T04:29:08.531Z,20.1
2019-02-15T04:29:58.184Z,19.8
2019-02-15T04:30:48.596Z,19.6
2019-02-15T04:31:39.165Z,19.4
2019-02-15T04:32:29.436Z,19.2
2019-02-15T04:33:18.776Z,19.1
2019-02-15T04:34:08.761Z,18.9
2019-02-15T04:34:58.226Z,18.8
2019-02-15T04:35:48.748Z,18.6
2019-02-15T04:36:38.414Z,18.6
2019-02-15T04:37:28.171Z,18.6
2019-02-15T04:38:19.366Z,18.4
2019-02-15T04:39:09.486Z,18.5
2019-02-15T04:39:58.853Z,19.1
2019-02-15T04:40:48.993Z,19.5
2019-02-15T04:41:39.405Z,19.8
2019-02-15T04:42:29.340Z,20.1
2019-02-15T04:43:18.853Z,20.3
2019-02-15T04:44:10.281Z,20.4
2019-02-15T04:44:58.729Z,20.6
2019-02-15T04:45:49.585Z,20.8
2019-02-15T04:46:40.248Z,20.9
2019-02-15T04:47:29.516Z,20.9
2019-02-15T04:48:20.293Z,21.1
2019-02-15T04:49:09.826Z,21.2
2019-02-15T04:49:59.697Z,21.3
2019-02-15T04:50:50.539Z,21.4
2019-02-15T04:51:40.833Z,21.4
2019-02-15T04:52:30.595Z,21.5
2019-02-15T04:53:20.897Z,21.6
2019-02-15T04:54:10.378Z,21.7
2019-02-15T04:55:00.480Z,21.5
2019-02-15T04:55:50.821Z,20.9
2019-02-15T04:56:40.373Z,20.5
2019-02-15T04:57:29.613Z,20.2
2019-02-15T04:58:20.437Z,19.9
2019-02-15T04:59:10.043Z,19.6
2019-02-15T05:00:00.657Z,19.4
2019-02-15T05:00:50.969Z,19.2
2019-02-15T05:01:40.894Z,19.1
2019-02-15T05:02:30.369Z,19
2019-02-15T05:03:24.510Z,18.8
2019-02-15T05:04:11.624Z,18.8
2019-02-15T05:05:50.977Z,18.6
2019-02-15T05:06:40.610Z,18.4
2019-02-15T05:08:21.433Z,19.2
2019-02-15T05:09:11.175Z,19.6
2019-02-15T05:10:01.488Z,19.9
2019-02-15T05:10:51.002Z,20.1
2019-02-15T05:11:41.692Z,20.3
2019-02-15T05:12:31.416Z,20.5
2019-02-15T05:13:21.497Z,20.7
2019-02-15T05:14:12.092Z,20.8
2019-02-15T05:15:02.162Z,20.9
2019-02-15T05:15:51.603Z,20.9
2019-02-15T05:16:42.022Z,21.1
2019-02-15T05:18:21.829Z,21.2
2019-02-15T05:19:11.319Z,21.3
2019-02-15T05:20:02.884Z,21.3
2019-02-15T05:20:52.213Z,21.4
2019-02-15T05:21:42.573Z,21.4
2019-02-15T05:22:33.113Z,21.5
2019-02-15T05:23:21.958Z,21.3
2019-02-15T05:24:13.360Z,20.8
2019-02-15T05:25:02.787Z,20.2
2019-02-15T05:25:52.579Z,19.8
2019-02-15T05:26:41.798Z,19.4
2019-02-15T05:27:32.173Z,19.1
2019-02-15T05:28:22.745Z,18.9
2019-02-15T05:29:13.405Z,18.8
2019-02-15T05:30:03.232Z,18.6
2019-02-15T05:30:52.732Z,18.4
2019-02-15T05:31:42.692Z,18.3
2019-02-15T05:32:33.294Z,18.1
2019-02-15T05:33:21.785Z,18
2019-02-15T05:34:13.173Z,17.9
2019-02-15T05:35:03.688Z,17.8
2019-02-15T05:35:53.288Z,17.7
2019-02-15T05:36:43.605Z,17.5
2019-02-15T05:37:33.479Z,17.4
2019-02-15T05:38:23.788Z,17.3
2019-02-15T05:39:14.129Z,17.2
2019-02-15T05:40:02.942Z,17.2
2019-02-15T05:40:53.944Z,17.2
2019-02-15T05:41:44.017Z,17.1
2019-02-15T05:44:13.594Z,16.9
2019-02-15T05:45:12.898Z,16.9
2019-02-15T05:45:52.613Z,16.8
2019-02-15T05:46:44.857Z,16.8
2019-02-15T05:47:34.359Z,16.7
2019-02-15T05:48:23.319Z,16.7
2019-02-15T05:49:13.919Z,16.6
2019-02-15T05:50:04.269Z,16.6
2019-02-15T05:50:54.296Z,16.5
2019-02-15T05:51:44.333Z,16.5
2019-02-15T05:52:34.114Z,16.4
2019-02-15T05:53:25.014Z,16.4
2019-02-15T05:54:14.471Z,16.4
2019-02-15T05:55:03.824Z,16.4
2019-02-15T05:55:54.411Z,16.4
2019-02-15T05:56:44.707Z,16.3
2019-02-15T05:57:34.739Z,16.3
2019-02-15T05:58:24.238Z,16.3
2019-02-15T05:59:13.743Z,16.3
2019-02-15T06:00:05.208Z,16.2
2019-02-15T06:00:54.700Z,16.2
2019-02-15T06:01:43.800Z,16.2
2019-02-15T06:02:35.141Z,16.2
2019-02-15T06:03:25.128Z,16.1
2019-02-15T06:06:13.339Z,16
2019-02-15T06:07:03.273Z,15.9
2019-02-15T06:07:53.971Z,15.9
2019-02-15T06:08:42.599Z,15.9
2019-02-15T06:09:33.223Z,15.9
2019-02-15T06:10:23.556Z,15.8
2019-02-15T06:11:17.364Z,15.8
2019-02-15T06:12:03.353Z,15.8
2019-02-15T06:12:53.273Z,15.7
2019-02-15T06:13:42.350Z,15.6
2019-02-15T06:14:33.605Z,15.6
2019-02-15T06:15:23.751Z,15.6
2019-02-15T06:16:13.406Z,15.5
2019-02-15T06:17:06.558Z,15.5
2019-02-15T06:17:54.276Z,15.4
2019-02-15T06:18:44.449Z,15.4
2019-02-15T06:19:32.761Z,15.4
2019-02-15T06:20:23.912Z,15.3
2019-02-15T06:21:14.569Z,15.3
2019-02-15T06:22:03.985Z,15.3
2019-02-15T06:22:53.809Z,15.3
2019-02-15T06:23:44.119Z,15.2
2019-02-15T06:24:34.467Z,15.2
2019-02-15T06:25:24.212Z,15.2
2019-02-15T06:26:14.553Z,15.1
2019-02-15T06:27:04.650Z,15.1
2019-02-15T06:27:55.394Z,15.1
2019-02-15T06:28:44.555Z,15
2019-02-15T06:29:33.991Z,15
2019-02-15T06:30:24.974Z,15
2019-02-15T06:31:13.874Z,15
2019-02-15T06:32:05.226Z,14.9
2019-02-15T06:32:55.035Z,14.9
2019-02-15T06:33:44.246Z,14.9
2019-02-15T06:34:34.344Z,14.9
2019-02-15T06:35:24.083Z,14.9
2019-02-15T06:36:15.301Z,14.8
2019-02-15T06:37:05.379Z,14.8
2019-02-15T06:37:55.636Z,14.8
2019-02-15T06:38:44.307Z,14.8
2019-02-15T06:39:34.918Z,14.8
2019-02-15T06:40:24.692Z,14.7
2019-02-15T06:41:17.501Z,14.7
2019-02-15T06:42:05.447Z,14.6
2019-02-15T06:42:56.116Z,14.6
2019-02-15T06:43:45.573Z,14.6
2019-02-15T06:44:35.501Z,14.6
2019-02-15T06:45:33.316Z,14.6
2019-02-15T06:46:15.961Z,14.5
2019-02-15T06:47:05.428Z,14.5
2019-02-15T06:47:56.083Z,14.4
2019-02-15T06:48:46.223Z,14.4
2019-02-15T06:49:36.440Z,14.4
2019-02-15T06:50:25.476Z,14.5
2019-02-15T06:51:16.339Z,14.5
2019-02-15T06:52:06.406Z,14.4
2019-02-15T06:52:55.923Z,14.4
2019-02-15T06:53:46.234Z,14.4
2019-02-15T06:54:36.249Z,14.3
2019-02-15T06:55:25.994Z,14.3
2019-02-15T06:56:16.357Z,14.3
2019-02-15T06:57:06.658Z,14.3
2019-02-15T06:57:56.704Z,14.3
2019-02-15T06:58:53.980Z,14.3
2019-02-15T06:59:35.712Z,14.3
2019-02-15T07:00:26.055Z,14.3
2019-02-15T07:01:16.973Z,14.3
2019-02-15T07:02:06.987Z,14.3
2019-02-15T07:02:56.300Z,14.3
2019-02-15T07:03:49.154Z,14.3
2019-02-15T07:06:12.686Z,14.3
2019-02-15T07:07:17.720Z,14.3
2019-02-15T07:07:53.294Z,14.3
2019-02-15T07:08:43.419Z,14.3
2019-02-15T07:09:33.106Z,14.2
2019-02-15T07:10:37.181Z,14.2
2019-02-15T07:11:13.712Z,14.2
2019-02-15T07:12:03.731Z,14.2
2019-02-15T07:12:53.876Z,14.2
2019-02-15T07:13:43.024Z,14.2
2019-02-15T07:14:33.217Z,14.2
2019-02-15T07:15:38.387Z,14.2
2019-02-15T07:16:13.416Z,14.2
2019-02-15T07:17:03.804Z,14.2
2019-02-15T07:17:54.346Z,14.1
2019-02-15T07:18:44.123Z,14.2
2019-02-15T07:20:03.371Z,14.2
2019-02-15T07:20:23.154Z,14.2
2019-02-15T07:21:14.749Z,14.2
2019-02-15T07:22:18.990Z,14.2
2019-02-15T07:23:08.723Z,14.1
2019-02-15T07:23:59.749Z,14.1
2019-02-15T07:24:33.366Z,14.1
2019-02-15T07:25:23.797Z,14.1
2019-02-15T07:26:29.738Z,14.1
2019-02-15T07:27:03.803Z,14.1
2019-02-15T07:27:54.888Z,14.1
2019-02-15T07:28:47.057Z,14.1
2019-02-15T07:29:35.133Z,14.1
2019-02-15T07:30:24.802Z,14.1
2019-02-15T07:31:28.889Z,14.1
2019-02-15T07:32:03.260Z,14.1
2019-02-15T07:33:09.247Z,14.1
2019-02-15T07:33:45.349Z,14.1
2019-02-15T07:34:48.637Z,14.1
2019-02-15T07:35:39.048Z,14.1
2019-02-15T07:36:16.289Z,14.1
2019-02-15T07:37:36.557Z,14.1
2019-02-15T07:37:55.715Z,14.1
2019-02-15T07:38:44.740Z,14.1
2019-02-15T07:39:50.932Z,14.1
2019-02-15T07:41:30.187Z,14.1
2019-02-15T07:42:18.820Z,14.1
2019-02-15T07:43:10.752Z,14.1
2019-02-15T07:43:45.358Z,14.1
2019-02-15T07:44:35.794Z,14
2019-02-15T07:45:27.592Z,14.1
2019-02-15T07:46:29.752Z,14.1
2019-02-15T07:47:06.007Z,14.1
2019-02-15T07:47:56.337Z,14.1
2019-02-15T07:48:45.180Z,14.1
2019-02-15T07:49:36.445Z,14.1
2019-02-15T07:50:27.017Z,14.1
2019-02-15T07:51:17.910Z,14.1
2019-02-15T07:52:50.002Z,14
2019-02-15T07:53:01.129Z,14
2019-02-15T07:53:51.224Z,14
2019-02-15T07:54:40.598Z,14
2019-02-15T07:55:30.674Z,14
2019-02-15T07:56:20.279Z,14
2019-02-15T07:57:11.120Z,14
2019-02-15T07:58:00.863Z,14
2019-02-15T07:58:50.389Z,14
2019-02-15T07:59:40.343Z,14
2019-02-15T08:00:30.566Z,14
2019-02-15T08:01:20.398Z,14
2019-02-15T08:02:11.396Z,14
2019-02-15T08:03:00.974Z,14
2019-02-15T08:03:51.503Z,14
2019-02-15T08:04:40.993Z,13.9
2019-02-15T08:05:31.622Z,14
2019-02-15T08:06:21.484Z,14
2019-02-15T08:07:10.953Z,14
2019-02-15T08:08:00.806Z,14
2019-02-15T08:08:51.510Z,14
2019-02-15T08:09:41.435Z,14
2019-02-15T08:10:30.886Z,14
2019-02-15T08:11:20.913Z,14
2019-02-15T08:12:11.568Z,14
2019-02-15T08:13:01.045Z,14
2019-02-15T08:13:50.595Z,14
2019-02-15T08:14:42.093Z,14
2019-02-15T08:15:41.030Z,14
2019-02-15T08:16:22.108Z,13.9
2019-02-15T08:17:11.443Z,13.9
2019-02-15T08:18:01.441Z,14
2019-02-15T08:18:51.807Z,14
2019-02-15T08:19:42.887Z,14
2019-02-15T08:20:31.532Z,14
2019-02-15T08:21:22.190Z,14
2019-02-15T08:22:11.938Z,14
2019-02-15T08:23:02.580Z,14
2019-02-15T08:23:52.647Z,14
2019-02-15T08:24:41.827Z,14
2019-02-15T08:25:32.760Z,14
2019-02-15T08:26:22.827Z,14
2019-02-15T08:27:12.882Z,14
2019-02-15T08:28:02.060Z,14
2019-02-15T08:28:53.077Z,14
2019-02-15T08:29:42.207Z,14
2019-02-15T08:30:33.084Z,14
2019-02-15T08:31:22.577Z,14
2019-02-15T08:32:14.187Z,14
2019-02-15T08:33:02.671Z,14
2019-02-15T08:33:53.039Z,14
2019-02-15T08:34:44.429Z,14
2019-02-15T08:35:32.767Z,14
2019-02-15T08:36:23.486Z,14
2019-02-15T08:37:15.336Z,14
2019-02-15T08:38:03.364Z,14
2019-02-15T08:38:54.294Z,14
2019-02-15T08:39:43.706Z,14
2019-02-15T08:40:34.584Z,14
2019-02-15T08:41:24.074Z,14
2019-02-15T08:42:13.396Z,14
2019-02-15T08:43:03.626Z,14
2019-02-15T08:43:54.056Z,14
2019-02-15T08:44:44.219Z,14
2019-02-15T08:45:34.213Z,14
2019-02-15T08:46:23.512Z,14
2019-02-15T08:47:13.866Z,14
2019-02-15T08:48:04.929Z,14
2019-02-15T08:48:55.316Z,14
2019-02-15T08:49:44.820Z,14
2019-02-15T08:50:34.128Z,14
2019-02-15T08:51:23.956Z,14
2019-02-15T08:52:15.555Z,14
2019-02-15T08:53:03.811Z,14
2019-02-15T08:53:56.731Z,14
2019-02-15T08:54:44.243Z,14
2019-02-15T08:55:33.278Z,14
2019-02-15T08:56:25.072Z,14
2019-02-15T08:57:14.677Z,14
2019-02-15T08:58:03.964Z,14
2019-02-15T08:58:54.783Z,14
2019-02-15T08:59:45.065Z,14
2019-02-15T09:00:34.610Z,14
2019-02-15T09:01:24.325Z,14
2019-02-15T09:02:14.647Z,14
2019-02-15T09:03:19.367Z,14
2019-02-15T09:03:54.602Z,14
2019-02-15T09:04:45.701Z,14
2019-02-15T09:05:34.957Z,14
2019-02-15T09:06:24.947Z,14
2019-02-15T09:07:16.105Z,14
2019-02-15T09:08:04.791Z,14
2019-02-15T09:08:55.444Z,14
2019-02-15T09:09:45.750Z,14
2019-02-15T09:10:35.472Z,14
2019-02-15T09:11:25.647Z,14
2019-02-15T09:12:16.473Z,14
2019-02-15T09:13:05.949Z,14.1
2019-02-15T09:13:54.977Z,14
2019-02-15T09:14:45.294Z,14
2019-02-15T09:15:35.319Z,14
2019-02-15T09:16:25.856Z,14
2019-02-15T09:17:15.396Z,14
2019-02-15T09:18:04.962Z,14
2019-02-15T09:18:56.533Z,14
2019-02-15T09:19:46.311Z,14
2019-02-15T09:20:36.405Z,14
2019-02-15T09:21:26.491Z,14
2019-02-15T09:22:16.756Z,14
2019-02-15T09:23:06.827Z,14
2019-02-15T09:23:57.914Z,14.1
2019-02-15T09:24:46.217Z,14
2019-02-15T09:25:37.054Z,14
2019-02-15T09:26:26.814Z,14
2019-02-15T09:27:16.903Z,14.1
2019-02-15T09:28:06.411Z,14.1
2019-02-15T09:28:56.751Z,14.1
2019-02-15T09:29:46.763Z,14.1
2019-02-15T09:30:36.825Z,14
2019-02-15T09:31:26.948Z,14
2019-02-15T09:32:16.960Z,14
2019-02-15T09:33:07.293Z,14
2019-02-15T09:33:56.956Z,14
2019-02-15T09:34:47.577Z,14.1
2019-02-15T09:35:37.489Z,14
2019-02-15T09:36:28.023Z,14.1
2019-02-15T09:37:17.546Z,14.1
2019-02-15T09:38:08.515Z,14
2019-02-15T09:38:58.441Z,14
2019-02-15T09:39:47.738Z,14.1
2019-02-15T09:40:37.669Z,14.1
2019-02-15T09:41:28.075Z,14.1
2019-02-15T09:42:18.379Z,14.1
2019-02-15T09:43:08.225Z,14.1
2019-02-15T09:43:57.973Z,14.1
2019-02-15T09:44:49.028Z,14.1
2019-02-15T09:45:40.922Z,14.1
2019-02-15T09:46:28.597Z,14.1
2019-02-15T09:47:19.105Z,14.1
2019-02-15T09:48:08.035Z,14.1
2019-02-15T09:48:58.437Z,14.1
2019-02-15T09:49:52.427Z,14.1
2019-02-15T09:50:39.283Z,14.1
2019-02-15T09:51:27.998Z,14.1
2019-02-15T09:52:18.829Z,14.1
2019-02-15T09:53:08.595Z,14.1
2019-02-15T09:53:59.528Z,14.1
2019-02-15T09:54:49.604Z,14.1
2019-02-15T09:55:39.166Z,14.1
2019-02-15T09:56:30.011Z,14.1
2019-02-15T09:57:19.711Z,14.1
2019-02-15T09:58:09.066Z,14.1
2019-02-15T09:58:58.791Z,14.1
2019-02-15T09:59:49.620Z,14.1
2019-02-15T10:00:39.392Z,14.1
2019-02-15T10:01:29.731Z,14.1
2019-02-15T10:02:18.157Z,14.1
2019-02-15T10:03:09.026Z,14.1
2019-02-15T10:04:01.958Z,14.1
2019-02-15T10:04:49.473Z,14.1
2019-02-15T10:07:13.195Z,14.1
2019-02-15T10:08:02.448Z,14.2
2019-02-15T10:08:52.278Z,14.1
2019-02-15T10:09:44.884Z,14.2
2019-02-15T10:10:33.231Z,14.1
2019-02-15T10:11:23.177Z,14.1
2019-02-15T10:12:13.025Z,14.1
2019-02-15T10:13:03.093Z,14.1
2019-02-15T10:13:52.753Z,14.1
2019-02-15T10:14:42.578Z,14.1
2019-02-15T10:15:33.765Z,14.1
2019-02-15T10:16:34.865Z,14.1
2019-02-15T10:17:12.584Z,14.1
2019-02-15T10:18:02.328Z,14.1
2019-02-15T10:18:53.698Z,14.1
2019-02-15T10:19:44.105Z,14.1
2019-02-15T10:20:32.268Z,14.1
2019-02-15T10:21:23.895Z,14.1
2019-02-15T10:22:15.824Z,14
2019-02-15T10:23:03.730Z,14
2019-02-15T10:23:54.084Z,14
2019-02-15T10:24:44.225Z,14
2019-02-15T10:25:34.460Z,14
2019-02-15T10:26:24.213Z,14
2019-02-15T10:27:13.662Z,13.9
2019-02-15T10:28:04.172Z,13.9
2019-02-15T10:28:53.993Z,13.9
2019-02-15T10:29:43.601Z,13.9
2019-02-15T10:30:34.287Z,13.9
2019-02-15T10:31:24.337Z,13.9
2019-02-15T10:32:15.476Z,13.9
2019-02-15T10:33:04.447Z,13.9
2019-02-15T10:33:54.764Z,13.9
2019-02-15T10:34:44.556Z,13.9
2019-02-15T10:35:34.603Z,13.9
2019-02-15T10:36:26.964Z,13.9
2019-02-15T10:37:13.869Z,13.9
2019-02-15T10:38:04.087Z,13.9
2019-02-15T10:38:55.201Z,13.9
2019-02-15T10:39:44.882Z,13.8
2019-02-15T10:40:34.446Z,13.8
2019-02-15T10:41:25.046Z,13.8
2019-02-15T10:42:29.690Z,13.8
2019-02-15T10:43:04.044Z,13.8
2019-02-15T10:43:55.456Z,13.8
2019-02-15T10:44:45.471Z,13.8
2019-02-15T10:45:34.548Z,13.8
2019-02-15T10:46:24.828Z,13.8
2019-02-15T10:47:32.749Z,13.8
2019-02-15T10:48:05.231Z,13.8
2019-02-15T10:48:55.533Z,13.8
2019-02-15T10:49:45.858Z,13.8
2019-02-15T10:50:35.374Z,13.8
2019-02-15T10:51:26.018Z,13.8
2019-02-15T10:52:15.203Z,13.8
2019-02-15T10:53:05.643Z,13.8
2019-02-15T10:53:56.231Z,13.8
2019-02-15T10:54:45.700Z,13.7
2019-02-15T10:55:35.178Z,13.7
2019-02-15T10:56:25.900Z,13.7
2019-02-15T10:57:16.718Z,13.7
2019-02-15T10:58:06.380Z,13.7
2019-02-15T10:58:56.213Z,13.7
2019-02-15T10:59:46.110Z,13.7
2019-02-15T11:00:35.283Z,13.7
2019-02-15T11:01:25.700Z,13.7
2019-02-15T11:02:15.815Z,13.7
2019-02-15T11:03:06.028Z,13.6
2019-02-15T11:03:55.083Z,13.6
2019-02-15T11:04:47.476Z,13.6
2019-02-15T11:05:36.933Z,13.6
2019-02-15T11:06:26.420Z,13.6
2019-02-15T11:07:16.215Z,13.6
2019-02-15T11:08:07.185Z,13.6
2019-02-15T11:08:56.917Z,13.6
2019-02-15T11:09:46.664Z,13.6
2019-02-15T11:10:39.502Z,13.6
2019-02-15T11:11:26.804Z,13.6
2019-02-15T11:12:17.138Z,13.6
2019-02-15T11:13:07.153Z,13.6
2019-02-15T11:13:56.169Z,13.6
2019-02-15T11:14:48.076Z,13.6
2019-02-15T11:15:37.607Z,13.6
2019-02-15T11:16:26.902Z,13.6
2019-02-15T11:17:17.043Z,13.6
2019-02-15T11:18:08.156Z,13.6
2019-02-15T11:18:58.141Z,13.6
2019-02-15T11:19:47.347Z,13.6
2019-02-15T11:20:37.422Z,13.5
2019-02-15T11:21:27.811Z,13.6
2019-02-15T11:22:17.807Z,13.5
2019-02-15T11:23:07.607Z,13.5
2019-02-15T11:23:57.949Z,13.5
2019-02-15T11:24:47.675Z,13.5
2019-02-15T11:25:38.304Z,13.5
2019-02-15T11:26:33.031Z,13.5
2019-02-15T11:27:18.446Z,13.5
2019-02-15T11:28:08.737Z,13.5
2019-02-15T11:28:57.969Z,13.5
2019-02-15T11:29:49.051Z,13.5
2019-02-15T11:30:38.679Z,13.5
2019-02-15T11:31:28.784Z,13.5
2019-02-15T11:32:18.851Z,13.5
2019-02-15T11:33:08.321Z,13.4
2019-02-15T11:33:58.923Z,13.5
2019-02-15T11:34:49.241Z,13.5
2019-02-15T11:35:39.088Z,13.5
2019-02-15T11:36:30.829Z,13.5